Lakewood, Illinois
Current Conditions -  °F | °C
As of 6:35 AM on Tuesday 27 Jan 2015 (Local Time) from K1H2 Reporting Station
Overcast Overcast  
Wind Chill: 26°   Ceiling: 1000
Heat Index: 33°   Visibility: 7mi
Dew Point: 29°   Wind: 9mph
Humidity: 84%   Direction: 330°NNW
Pressure: 30.03"   Gusts: NA
Location:  39.32°N, 88.9°W
Report Text: K1H2 271235Z AUTO 33008KT 300V360 7SM OVC010 01/M02 A3003 RMK AO2 T00081016
Loading
Personal Weather Stations






























Interactive Weather Map New forecast layout! Learn more

10-Day Weather Forecast

Advertisements
Track Severe Weather on mobile